Terminal Aerodrome Forecast
Issued by NWS Omaha/Valley, NE

Home | Current Version | Previous Version | Graphics & Text | Print | Product List | Glossary On
Versions: 1 2 3 4 5 6 7 8 9 10 11 12 13 14 15 16 17 18 19 20 21 22
000
FTUS43 KOAX 161120
TAFOFK
TAF
KOFK 161120Z 1612/1712 32009KT P6SM OVC025
      TEMPO 1613/1615 SCT025
     FM161500 30005KT P6SM SCT070
     FM162100 VRB03KT P6SM FEW250
     FM170600 09007KT P6SM FEW250=

USA.gov is the U.S. government's official web portal to all federal, state and local government web resources and services.